sensor_id;sensor_type;location;lat;lon;timestamp;P1;durP1;ratioP1;P2;durP2;ratioP2
39518;SDS011;25200;53.394;10.414;2022-12-18T00:01:01;21.30;;;8.65;;
39518;SDS011;25200;53.394;10.414;2022-12-18T00:03:34;23.38;;;9.85;;
39518;SDS011;25200;53.394;10.414;2022-12-18T00:06:01;22.50;;;10.82;;
39518;SDS011;25200;53.394;10.414;2022-12-18T00:08:27;32.55;;;12.48;;
39518;SDS011;25200;53.394;10.414;2022-12-18T00:10:53;19.88;;;9.77;;
39518;SDS011;25200;53.394;10.414;2022-12-18T00:13:19;23.85;;;10.57;;
39518;SDS011;25200;53.394;10.414;2022-12-18T00:15:45;21.20;;;9.20;;
39518;SDS011;25200;53.394;10.414;2022-12-18T00:18:10;23.70;;;10.43;;
39518;SDS011;25200;53.394;10.414;2022-12-18T00:20:36;21.42;;;8.82;;
39518;SDS011;25200;53.394;10.414;2022-12-18T00:23:04;24.27;;;9.95;;
39518;SDS011;25200;53.394;10.414;2022-12-18T00:25:32;19.05;;;8.80;;
39518;SDS011;25200;53.394;10.414;2022-12-18T00:28:01;19.73;;;8.95;;
39518;SDS011;25200;53.394;10.414;2022-12-18T00:30:28;20.33;;;9.23;;
39518;SDS011;25200;53.394;10.414;2022-12-18T00:32:54;22.85;;;9.45;;
39518;SDS011;25200;53.394;10.414;2022-12-18T00:35:20;18.38;;;9.13;;
39518;SDS011;25200;53.394;10.414;2022-12-18T00:37:46;18.70;;;8.90;;
39518;SDS011;25200;53.394;10.414;2022-12-18T00:40:12;21.35;;;8.77;;
39518;SDS011;25200;53.394;10.414;2022-12-18T00:42:37;19.05;;;8.20;;
39518;SDS011;25200;53.394;10.414;2022-12-18T00:45:22;17.30;;;7.68;;
39518;SDS011;25200;53.394;10.414;2022-12-18T00:47:52;17.98;;;9.15;;
39518;SDS011;25200;53.394;10.414;2022-12-18T00:50:18;18.42;;;8.60;;
39518;SDS011;25200;53.394;10.414;2022-12-18T00:52:44;17.58;;;7.88;;
39518;SDS011;25200;53.394;10.414;2022-12-18T00:55:09;19.30;;;8.98;;
39518;SDS011;25200;53.394;10.414;2022-12-18T00:57:35;17.75;;;8.00;;
39518;SDS011;25200;53.394;10.414;2022-12-18T01:00:02;17.55;;;8.10;;
39518;SDS011;25200;53.394;10.414;2022-12-18T01:02:29;16.63;;;7.72;;
39518;SDS011;25200;53.394;10.414;2022-12-18T01:04:54;23.73;;;9.77;;
39518;SDS011;25200;53.394;10.414;2022-12-18T01:07:20;17.35;;;7.85;;
39518;SDS011;25200;53.394;10.414;2022-12-18T01:09:46;20.38;;;8.93;;
39518;SDS011;25200;53.394;10.414;2022-12-18T01:12:11;21.35;;;9.00;;
39518;SDS011;25200;53.394;10.414;2022-12-18T01:14:37;17.38;;;9.40;;
39518;SDS011;25200;53.394;10.414;2022-12-18T01:17:03;18.83;;;7.93;;
39518;SDS011;25200;53.394;10.414;2022-12-18T01:19:29;15.68;;;8.48;;
39518;SDS011;25200;53.394;10.414;2022-12-18T01:21:55;17.48;;;8.27;;
39518;SDS011;25200;53.394;10.414;2022-12-18T01:24:21;18.08;;;8.15;;
39518;SDS011;25200;53.394;10.414;2022-12-18T01:26:46;16.20;;;9.13;;
39518;SDS011;25200;53.394;10.414;2022-12-18T01:29:12;15.70;;;7.80;;
39518;SDS011;25200;53.394;10.414;2022-12-18T01:31:38;23.27;;;9.07;;
39518;SDS011;25200;53.394;10.414;2022-12-18T01:34:04;18.50;;;7.78;;
39518;SDS011;25200;53.394;10.414;2022-12-18T01:36:31;17.60;;;7.90;;
39518;SDS011;25200;53.394;10.414;2022-12-18T01:39:03;16.02;;;8.15;;
39518;SDS011;25200;53.394;10.414;2022-12-18T01:41:31;17.63;;;7.53;;
39518;SDS011;25200;53.394;10.414;2022-12-18T01:50:03;13.43;;;6.90;;
39518;SDS011;25200;53.394;10.414;2022-12-18T01:52:48;15.00;;;7.82;;
39518;SDS011;25200;53.394;10.414;2022-12-18T01:55:40;19.50;;;7.93;;
39518;SDS011;25200;53.394;10.414;2022-12-18T01:58:15;19.60;;;7.95;;
39518;SDS011;25200;53.394;10.414;2022-12-18T02:00:41;17.08;;;8.25;;
39518;SDS011;25200;53.394;10.414;2022-12-18T02:03:07;18.48;;;7.68;;
39518;SDS011;25200;53.394;10.414;2022-12-18T02:05:47;19.05;;;7.22;;
39518;SDS011;25200;53.394;10.414;2022-12-18T02:08:30;16.20;;;7.78;;
39518;SDS011;25200;53.394;10.414;2022-12-18T02:22:17;18.52;;;7.32;;
39518;SDS011;25200;53.394;10.414;2022-12-18T02:28:05;15.05;;;6.93;;
39518;SDS011;25200;53.394;10.414;2022-12-18T02:30:33;14.80;;;6.40;;
39518;SDS011;25200;53.394;10.414;2022-12-18T02:33:02;16.50;;;7.80;;
39518;SDS011;25200;53.394;10.414;2022-12-18T02:35:31;15.80;;;7.55;;
39518;SDS011;25200;53.394;10.414;2022-12-18T02:37:58;15.48;;;7.82;;
39518;SDS011;25200;53.394;10.414;2022-12-18T02:40:26;16.52;;;7.63;;
39518;SDS011;25200;53.394;10.414;2022-12-18T02:42:53;16.83;;;7.68;;
39518;SDS011;25200;53.394;10.414;2022-12-18T02:45:19;14.75;;;7.18;;
39518;SDS011;25200;53.394;10.414;2022-12-18T02:47:46;15.57;;;6.55;;
39518;SDS011;25200;53.394;10.414;2022-12-18T03:01:16;22.48;;;8.20;;
39518;SDS011;25200;53.394;10.414;2022-12-18T03:04:24;16.00;;;6.85;;
39518;SDS011;25200;53.394;10.414;2022-12-18T03:06:45;15.40;;;7.22;;
39518;SDS011;25200;53.394;10.414;2022-12-18T03:09:15;16.58;;;7.25;;
39518;SDS011;25200;53.394;10.414;2022-12-18T03:11:47;13.95;;;7.03;;
39518;SDS011;25200;53.394;10.414;2022-12-18T03:14:38;14.30;;;7.38;;
39518;SDS011;25200;53.394;10.414;2022-12-18T03:17:07;13.52;;;6.90;;
39518;SDS011;25200;53.394;10.414;2022-12-18T03:19:39;19.17;;;7.50;;
39518;SDS011;25200;53.394;10.414;2022-12-18T03:22:06;14.77;;;6.85;;
39518;SDS011;25200;53.394;10.414;2022-12-18T03:24:33;14.25;;;6.85;;
39518;SDS011;25200;53.394;10.414;2022-12-18T03:27:05;16.40;;;6.40;;
39518;SDS011;25200;53.394;10.414;2022-12-18T03:29:38;16.77;;;7.35;;
39518;SDS011;25200;53.394;10.414;2022-12-18T03:32:09;17.05;;;7.88;;
39518;SDS011;25200;53.394;10.414;2022-12-18T03:34:38;14.85;;;7.18;;
39518;SDS011;25200;53.394;10.414;2022-12-18T03:37:06;16.13;;;7.00;;
39518;SDS011;25200;53.394;10.414;2022-12-18T03:39:33;16.02;;;7.35;;
39518;SDS011;25200;53.394;10.414;2022-12-18T03:52:37;17.38;;;7.07;;
39518;SDS011;25200;53.394;10.414;2022-12-18T03:55:07;15.25;;;6.18;;
39518;SDS011;25200;53.394;10.414;2022-12-18T03:57:34;18.67;;;7.00;;
39518;SDS011;25200;53.394;10.414;2022-12-18T04:00:04;16.67;;;7.10;;
39518;SDS011;25200;53.394;10.414;2022-12-18T04:02:34;14.80;;;7.10;;
39518;SDS011;25200;53.394;10.414;2022-12-18T04:05:02;16.48;;;7.55;;
39518;SDS011;25200;53.394;10.414;2022-12-18T04:07:30;18.55;;;8.02;;
39518;SDS011;25200;53.394;10.414;2022-12-18T04:09:57;21.55;;;7.82;;
39518;SDS011;25200;53.394;10.414;2022-12-18T04:12:26;22.17;;;8.45;;
39518;SDS011;25200;53.394;10.414;2022-12-18T04:14:53;16.40;;;7.68;;
39518;SDS011;25200;53.394;10.414;2022-12-18T04:17:19;18.88;;;8.32;;
39518;SDS011;25200;53.394;10.414;2022-12-18T04:19:45;15.15;;;6.63;;
39518;SDS011;25200;53.394;10.414;2022-12-18T04:22:11;20.88;;;8.40;;
39518;SDS011;25200;53.394;10.414;2022-12-18T04:24:37;13.82;;;6.78;;
39518;SDS011;25200;53.394;10.414;2022-12-18T04:27:03;19.40;;;7.53;;
39518;SDS011;25200;53.394;10.414;2022-12-18T04:29:29;19.38;;;8.40;;
39518;SDS011;25200;53.394;10.414;2022-12-18T04:31:54;16.08;;;7.93;;
39518;SDS011;25200;53.394;10.414;2022-12-18T04:34:20;13.90;;;6.93;;
39518;SDS011;25200;53.394;10.414;2022-12-18T04:36:46;18.55;;;8.45;;
39518;SDS011;25200;53.394;10.414;2022-12-18T04:39:13;19.95;;;8.50;;
39518;SDS011;25200;53.394;10.414;2022-12-18T04:41:39;17.35;;;7.82;;
39518;SDS011;25200;53.394;10.414;2022-12-18T04:44:04;18.48;;;7.82;;
39518;SDS011;25200;53.394;10.414;2022-12-18T04:46:30;20.45;;;8.10;;
39518;SDS011;25200;53.394;10.414;2022-12-18T04:48:56;16.58;;;7.28;;
39518;SDS011;25200;53.394;10.414;2022-12-18T04:51:21;18.17;;;8.05;;
39518;SDS011;25200;53.394;10.414;2022-12-18T04:53:47;18.67;;;7.97;;
39518;SDS011;25200;53.394;10.414;2022-12-18T04:56:13;17.27;;;8.43;;
39518;SDS011;25200;53.394;10.414;2022-12-18T04:58:40;15.60;;;7.20;;
39518;SDS011;25200;53.394;10.414;2022-12-18T05:01:08;17.38;;;6.68;;
39518;SDS011;25200;53.394;10.414;2022-12-18T05:03:35;19.90;;;7.78;;
39518;SDS011;25200;53.394;10.414;2022-12-18T05:06:01;17.80;;;7.53;;
39518;SDS011;25200;53.394;10.414;2022-12-18T05:08:28;22.33;;;7.88;;
39518;SDS011;25200;53.394;10.414;2022-12-18T05:13:30;17.80;;;8.57;;
39518;SDS011;25200;53.394;10.414;2022-12-18T05:15:56;18.05;;;7.47;;
39518;SDS011;25200;53.394;10.414;2022-12-18T05:18:25;16.20;;;7.13;;
39518;SDS011;25200;53.394;10.414;2022-12-18T05:20:51;16.85;;;7.20;;
39518;SDS011;25200;53.394;10.414;2022-12-18T05:23:17;17.83;;;7.25;;
39518;SDS011;25200;53.394;10.414;2022-12-18T05:28:19;21.75;;;8.45;;
39518;SDS011;25200;53.394;10.414;2022-12-18T05:30:49;18.27;;;8.10;;
39518;SDS011;25200;53.394;10.414;2022-12-18T05:33:17;20.23;;;8.88;;
39518;SDS011;25200;53.394;10.414;2022-12-18T05:35:43;22.15;;;8.10;;
39518;SDS011;25200;53.394;10.414;2022-12-18T05:38:14;23.08;;;9.23;;
39518;SDS011;25200;53.394;10.414;2022-12-18T05:40:41;19.88;;;8.70;;
39518;SDS011;25200;53.394;10.414;2022-12-18T05:43:08;19.90;;;7.88;;
39518;SDS011;25200;53.394;10.414;2022-12-18T05:45:36;21.33;;;9.02;;
39518;SDS011;25200;53.394;10.414;2022-12-18T05:48:05;18.98;;;7.65;;
39518;SDS011;25200;53.394;10.414;2022-12-18T05:50:35;21.58;;;8.23;;
39518;SDS011;25200;53.394;10.414;2022-12-18T05:53:05;22.15;;;8.68;;
39518;SDS011;25200;53.394;10.414;2022-12-18T05:55:34;19.25;;;8.13;;
39518;SDS011;25200;53.394;10.414;2022-12-18T05:58:01;17.63;;;8.13;;
39518;SDS011;25200;53.394;10.414;2022-12-18T06:00:29;20.48;;;8.70;;
39518;SDS011;25200;53.394;10.414;2022-12-18T06:02:55;18.63;;;8.20;;
39518;SDS011;25200;53.394;10.414;2022-12-18T06:05:21;23.67;;;8.43;;
39518;SDS011;25200;53.394;10.414;2022-12-18T06:07:46;18.52;;;8.25;;
39518;SDS011;25200;53.394;10.414;2022-12-18T06:10:12;18.77;;;7.80;;
39518;SDS011;25200;53.394;10.414;2022-12-18T06:12:38;17.83;;;8.48;;
39518;SDS011;25200;53.394;10.414;2022-12-18T06:15:04;17.23;;;7.75;;
39518;SDS011;25200;53.394;10.414;2022-12-18T06:17:30;22.77;;;8.45;;
39518;SDS011;25200;53.394;10.414;2022-12-18T06:19:57;19.92;;;7.78;;
39518;SDS011;25200;53.394;10.414;2022-12-18T06:22:24;18.70;;;7.95;;
39518;SDS011;25200;53.394;10.414;2022-12-18T06:24:49;19.90;;;8.10;;
39518;SDS011;25200;53.394;10.414;2022-12-18T06:27:15;18.48;;;7.80;;
39518;SDS011;25200;53.394;10.414;2022-12-18T06:29:41;16.85;;;7.18;;
39518;SDS011;25200;53.394;10.414;2022-12-18T06:32:07;19.80;;;8.05;;
39518;SDS011;25200;53.394;10.414;2022-12-18T06:34:33;23.55;;;9.32;;
39518;SDS011;25200;53.394;10.414;2022-12-18T06:36:58;24.73;;;10.25;;
39518;SDS011;25200;53.394;10.414;2022-12-18T06:39:24;20.17;;;8.32;;
39518;SDS011;25200;53.394;10.414;2022-12-18T06:41:52;27.40;;;9.95;;
39518;SDS011;25200;53.394;10.414;2022-12-18T06:44:18;22.95;;;9.45;;
39518;SDS011;25200;53.394;10.414;2022-12-18T06:46:44;21.77;;;9.40;;
39518;SDS011;25200;53.394;10.414;2022-12-18T06:49:09;23.48;;;9.25;;
39518;SDS011;25200;53.394;10.414;2022-12-18T06:51:35;18.67;;;8.52;;
39518;SDS011;25200;53.394;10.414;2022-12-18T06:54:01;22.33;;;9.07;;
39518;SDS011;25200;53.394;10.414;2022-12-18T06:56:26;22.95;;;8.75;;
39518;SDS011;25200;53.394;10.414;2022-12-18T06:58:52;22.42;;;9.10;;
39518;SDS011;25200;53.394;10.414;2022-12-18T07:01:18;25.45;;;10.10;;
39518;SDS011;25200;53.394;10.414;2022-12-18T07:03:44;21.83;;;9.02;;
39518;SDS011;25200;53.394;10.414;2022-12-18T07:06:14;21.90;;;9.52;;
39518;SDS011;25200;53.394;10.414;2022-12-18T07:08:41;17.65;;;7.60;;
39518;SDS011;25200;53.394;10.414;2022-12-18T07:11:07;18.35;;;7.93;;
39518;SDS011;25200;53.394;10.414;2022-12-18T07:13:32;19.25;;;8.70;;
39518;SDS011;25200;53.394;10.414;2022-12-18T07:16:05;30.25;;;9.85;;
39518;SDS011;25200;53.394;10.414;2022-12-18T07:18:31;19.92;;;8.70;;
39518;SDS011;25200;53.394;10.414;2022-12-18T07:20:57;24.30;;;10.10;;
39518;SDS011;25200;53.394;10.414;2022-12-18T07:23:22;20.40;;;8.88;;
39518;SDS011;25200;53.394;10.414;2022-12-18T07:25:48;22.73;;;8.13;;
39518;SDS011;25200;53.394;10.414;2022-12-18T07:28:14;23.45;;;9.23;;
39518;SDS011;25200;53.394;10.414;2022-12-18T07:30:39;23.48;;;8.85;;
39518;SDS011;25200;53.394;10.414;2022-12-18T07:33:05;21.17;;;8.07;;
39518;SDS011;25200;53.394;10.414;2022-12-18T07:35:32;21.42;;;8.57;;
39518;SDS011;25200;53.394;10.414;2022-12-18T07:38:02;31.75;;;8.82;;
39518;SDS011;25200;53.394;10.414;2022-12-18T07:40:27;23.40;;;8.23;;
39518;SDS011;25200;53.394;10.414;2022-12-18T07:42:53;23.20;;;7.72;;
39518;SDS011;25200;53.394;10.414;2022-12-18T07:45:18;23.35;;;7.55;;
39518;SDS011;25200;53.394;10.414;2022-12-18T07:47:44;22.35;;;8.63;;
39518;SDS011;25200;53.394;10.414;2022-12-18T07:50:10;23.25;;;8.38;;
39518;SDS011;25200;53.394;10.414;2022-12-18T07:52:36;23.73;;;8.27;;
39518;SDS011;25200;53.394;10.414;2022-12-18T07:55:02;20.67;;;8.02;;
39518;SDS011;25200;53.394;10.414;2022-12-18T07:57:28;17.33;;;8.05;;
39518;SDS011;25200;53.394;10.414;2022-12-18T07:59:53;20.80;;;9.60;;
39518;SDS011;25200;53.394;10.414;2022-12-18T08:02:19;24.42;;;9.63;;
39518;SDS011;25200;53.394;10.414;2022-12-18T08:04:45;25.70;;;9.52;;
39518;SDS011;25200;53.394;10.414;2022-12-18T08:07:11;23.73;;;9.25;;
39518;SDS011;25200;53.394;10.414;2022-12-18T08:09:37;21.65;;;8.65;;
39518;SDS011;25200;53.394;10.414;2022-12-18T08:12:02;22.80;;;8.80;;
39518;SDS011;25200;53.394;10.414;2022-12-18T08:14:28;20.08;;;7.47;;
39518;SDS011;25200;53.394;10.414;2022-12-18T08:16:54;19.15;;;7.85;;
39518;SDS011;25200;53.394;10.414;2022-12-18T08:19:20;25.63;;;10.15;;
39518;SDS011;25200;53.394;10.414;2022-12-18T08:21:45;24.83;;;9.65;;
39518;SDS011;25200;53.394;10.414;2022-12-18T08:24:11;24.65;;;8.98;;
39518;SDS011;25200;53.394;10.414;2022-12-18T08:26:37;26.13;;;9.95;;
39518;SDS011;25200;53.394;10.414;2022-12-18T08:29:02;27.75;;;8.80;;
39518;SDS011;25200;53.394;10.414;2022-12-18T08:31:29;27.65;;;9.82;;
39518;SDS011;25200;53.394;10.414;2022-12-18T08:33:55;27.88;;;8.93;;
39518;SDS011;25200;53.394;10.414;2022-12-18T08:36:22;22.45;;;9.00;;
39518;SDS011;25200;53.394;10.414;2022-12-18T08:38:48;24.50;;;9.88;;
39518;SDS011;25200;53.394;10.414;2022-12-18T08:41:15;24.52;;;10.15;;
39518;SDS011;25200;53.394;10.414;2022-12-18T08:43:42;26.45;;;9.80;;
39518;SDS011;25200;53.394;10.414;2022-12-18T08:46:27;20.95;;;8.95;;
39518;SDS011;25200;53.394;10.414;2022-12-18T08:48:57;21.80;;;8.68;;
39518;SDS011;25200;53.394;10.414;2022-12-18T08:51:23;21.02;;;8.63;;
39518;SDS011;25200;53.394;10.414;2022-12-18T08:53:48;22.75;;;8.85;;
39518;SDS011;25200;53.394;10.414;2022-12-18T08:56:14;23.20;;;9.32;;
39518;SDS011;25200;53.394;10.414;2022-12-18T08:58:40;27.30;;;10.00;;
39518;SDS011;25200;53.394;10.414;2022-12-18T09:01:08;23.88;;;9.50;;
39518;SDS011;25200;53.394;10.414;2022-12-18T09:03:35;22.65;;;9.05;;
39518;SDS011;25200;53.394;10.414;2022-12-18T09:06:02;26.05;;;9.68;;
39518;SDS011;25200;53.394;10.414;2022-12-18T09:08:28;23.42;;;9.38;;
39518;SDS011;25200;53.394;10.414;2022-12-18T09:10:54;25.08;;;9.98;;
39518;SDS011;25200;53.394;10.414;2022-12-18T09:13:20;23.05;;;8.90;;
39518;SDS011;25200;53.394;10.414;2022-12-18T09:15:51;26.45;;;9.70;;
39518;SDS011;25200;53.394;10.414;2022-12-18T09:18:19;20.80;;;8.07;;
39518;SDS011;25200;53.394;10.414;2022-12-18T09:20:46;25.00;;;9.88;;
39518;SDS011;25200;53.394;10.414;2022-12-18T09:23:12;23.02;;;9.00;;
39518;SDS011;25200;53.394;10.414;2022-12-18T09:25:38;27.13;;;8.68;;
39518;SDS011;25200;53.394;10.414;2022-12-18T09:28:06;25.60;;;9.38;;
39518;SDS011;25200;53.394;10.414;2022-12-18T09:30:39;21.38;;;8.85;;
39518;SDS011;25200;53.394;10.414;2022-12-18T09:33:06;26.48;;;10.52;;
39518;SDS011;25200;53.394;10.414;2022-12-18T09:35:32;26.85;;;8.93;;
39518;SDS011;25200;53.394;10.414;2022-12-18T09:38:05;25.27;;;9.20;;
39518;SDS011;25200;53.394;10.414;2022-12-18T09:40:35;25.17;;;9.77;;
39518;SDS011;25200;53.394;10.414;2022-12-18T09:43:05;22.38;;;8.73;;
39518;SDS011;25200;53.394;10.414;2022-12-18T09:45:38;26.13;;;9.38;;
39518;SDS011;25200;53.394;10.414;2022-12-18T09:48:25;32.30;;;9.27;;
39518;SDS011;25200;53.394;10.414;2022-12-18T09:51:02;28.25;;;9.65;;
39518;SDS011;25200;53.394;10.414;2022-12-18T09:53:34;24.10;;;8.65;;
39518;SDS011;25200;53.394;10.414;2022-12-18T09:56:03;26.00;;;8.68;;
39518;SDS011;25200;53.394;10.414;2022-12-18T10:00:59;24.85;;;9.73;;
39518;SDS011;25200;53.394;10.414;2022-12-18T10:03:25;23.52;;;9.77;;
